LFMK/CCF METAR and TAF weather

Enter ICAO airport designator
Station Type Date Time Source
LFMK METAR 2020/06/03 23:00 UTC NOAA

LFMK 032300Z AUTO 26006KT 9999 BKN058/// BKN076/// BKN110/// ///TCU 18/15 Q1005


Station Type Date Time Source
LFMK Decoded METAR 2020/06/03 23:00 UTC NOAA

Carcassonne, France (LFMK) 43-13N 002-19E 130M
Jun 03, 2020 - 07:00 PM EDT / 2020.06.03 2300 UTC
Wind: from the W (260 degrees) at 7 MPH (6 KT):0
Visibility: greater than 7 mile(s):0
Sky conditions: mostly cloudy
Weather: Towering cumulus clouds observed
Temperature: 64 F (18 C)
Dew Point: 59 F (15 C)
Relative Humidity: 82%
Pressure (altimeter): 29.68 in. Hg (1005 hPa)
ob: LFMK 032300Z AUTO 26006KT 9999 BKN058/// BKN076/// BKN110/// ///TCU 18/15 Q1005
cycle: 23

Station Type Date Time Source
LFMK TAF 2020/04/07 18:06 UTC NOAA

TAF LFMK 071801Z 0718/0815 CNL

Example: see airport list